Terminal Aerodrome Forecast
Issued by NWS Tampa Bay Area, FL

Home | Current Version | Previous Version | Text Only | Print | Product List | Glossary On
Versions: 1 2 3 4 5 6 7 8 9 10 11 12 13 14 15
000
FTUS42 KTBW 241925 AAA
TAFFMY
TAF AMD
KFMY 241925Z 2419/2518 33007KT P6SM SCT025 OVC040
      TEMPO 2419/2421 P6SM BKN020 OVC040
     FM251200 02005KT 2SM BR FEW020 SCT250
     FM251300 03005KT P6SM FEW090 SCT250=

USA.gov is the U.S. government's official web portal to all federal, state and local government web resources and services.